Time;durP1;ratioP1;P1;durP2;ratioP2;P2;SDS_P1;SDS_P2;PMS_P1;PMS_P2;Temp;Humidity;BMP_temperature;BMP_pressure;BME280_temperature;BME280_humidity;BME280_pressure;Samples;Min_cycle;Max_cycle;Signal;HPM_P1;HPM_P2
2021/04/21 00:00:12;;;;;;;1.95;1.10;;;14.40;65.70;14.70;99341.00;;;;339833;28;90430;-90
2021/04/21 00:00:24;;;;;;;1.88;1.10;;;14.40;65.70;14.70;99350.00;;;;337778;28;83411;-90
2021/04/21 00:00:35;;;;;;;1.92;1.15;;;14.40;66.50;14.70;99347.00;;;;340099;28;90891;-91
2021/04/21 00:00:47;;;;;;;4.72;1.30;;;14.40;65.70;14.50;99347.00;;;;338978;28;83706;-91
2021/04/21 00:01:00;;;;;;;5.57;1.40;;;14.40;65.60;14.40;99348.00;;;;340197;28;90362;-91
2021/04/21 00:01:12;;;;;;;2.80;1.20;;;14.40;65.90;14.30;99344.00;;;;339114;28;82366;-90
2021/04/21 00:01:23;;;;;;;2.60;1.00;;;14.40;65.90;14.40;99356.00;;;;339707;28;92155;-90
2021/04/21 00:01:38;;;;;;;1.88;1.05;;;14.40;65.90;14.30;99346.00;;;;340373;28;84512;-90
2021/04/21 00:01:50;;;;;;;2.00;1.27;;;14.40;65.90;14.50;99355.00;;;;340880;28;92912;-91
2021/04/21 00:02:01;;;;;;;2.65;1.50;;;14.40;65.80;14.60;99354.00;;;;339023;28;83770;-90
2021/04/21 00:02:17;;;;;;;2.72;1.35;;;14.40;65.80;14.50;99354.00;;;;341343;28;91599;-92
2021/04/21 00:02:29;;;;;;;2.03;1.13;;;14.40;65.90;14.60;99352.00;;;;339049;28;83561;-90
2021/04/21 00:02:41;;;;;;;2.05;1.17;;;14.40;65.70;14.60;99348.00;;;;336014;28;91031;-92
2021/04/21 00:02:54;;;;;;;1.80;1.20;;;14.40;65.90;14.50;99354.00;;;;340090;28;83378;-90
2021/04/21 00:03:05;;;;;;;1.77;1.25;;;14.40;66.10;14.50;99352.00;;;;338688;28;92399;-90
2021/04/21 00:03:17;;;;;;;1.67;1.23;;;14.40;66.00;14.30;99354.00;;;;337659;28;83541;-90
2021/04/21 00:03:29;;;;;;;1.70;1.45;;;14.40;66.10;14.30;99355.00;;;;337450;28;90757;-90
2021/04/21 00:03:41;;;;;;;2.30;1.40;;;14.30;66.10;14.30;99352.00;;;;340341;28;85170;-91
2021/04/21 00:03:53;;;;;;;2.50;1.25;;;14.40;66.20;14.40;99353.00;;;;338620;28;92764;-90
2021/04/21 00:04:07;;;;;;;2.42;1.25;;;14.40;66.20;14.40;99349.00;;;;336295;28;84813;-91
2021/04/21 00:04:18;;;;;;;2.13;1.42;;;14.30;66.40;14.30;99348.00;;;;342411;28;92411;-92
2021/04/21 00:04:30;;;;;;;2.55;1.27;;;14.30;66.80;14.40;99351.00;;;;341754;28;85003;-90
2021/04/21 00:04:43;;;;;;;2.47;1.05;;;14.30;66.50;14.40;99349.00;;;;339988;28;90926;-90
2021/04/21 00:04:55;;;;;;;2.40;1.13;;;14.30;66.30;14.40;99352.00;;;;339458;28;84128;-91
2021/04/21 00:05:09;;;;;;;1.73;1.30;;;14.30;66.60;14.50;99351.00;;;;342526;28;91439;-90
2021/04/21 00:05:22;;;;;;;2.10;1.50;;;14.30;66.50;14.30;99356.00;;;;340407;28;85021;-91
2021/04/21 00:05:33;;;;;;;2.28;1.58;;;14.30;66.40;14.20;99348.00;;;;338728;28;90743;-90
2021/04/21 00:05:46;;;;;;;2.58;1.33;;;14.30;66.50;14.30;99352.00;;;;341727;28;84765;-92
2021/04/21 00:05:59;;;;;;;2.72;1.23;;;14.30;66.60;14.40;99345.00;;;;340060;28;92448;-91
2021/04/21 00:06:12;;;;;;;3.05;1.27;;;14.30;66.40;14.20;99346.00;;;;340408;28;85130;-90
2021/04/21 00:06:25;;;;;;;2.88;1.20;;;14.30;66.50;14.30;99353.00;;;;344095;28;87967;-91
2021/04/21 00:06:36;;;;;;;2.40;1.20;;;14.30;66.50;14.40;99346.00;;;;343119;28;84517;-91
2021/04/21 00:06:48;;;;;;;2.70;1.20;;;14.30;66.50;14.30;99349.00;;;;340092;28;91910;-91
2021/04/21 00:06:59;;;;;;;2.30;1.30;;;14.30;66.70;14.40;99347.00;;;;344449;28;83636;-90
2021/04/21 00:07:17;;;;;;;2.45;1.50;;;14.30;66.70;14.40;99346.00;;;;344279;28;92251;-90
2021/04/21 00:07:28;;;;;;;1.80;1.30;;;14.30;66.70;14.20;99345.00;;;;343068;28;83770;-90
2021/04/21 00:07:39;;;;;;;1.60;1.00;;;14.30;66.60;14.10;99346.00;;;;342874;28;92214;-90
2021/04/21 00:07:51;;;;;;;1.52;1.00;;;14.20;66.60;14.20;99351.00;;;;342868;28;82713;-91
2021/04/21 00:08:02;;;;;;;1.85;1.10;;;14.30;66.60;14.40;99352.00;;;;341281;28;92191;-90
2021/04/21 00:08:14;;;;;;;1.90;1.13;;;14.20;66.40;14.50;99355.00;;;;344588;28;83533;-91
2021/04/21 00:08:26;;;;;;;1.67;1.13;;;14.30;66.50;14.40;99353.00;;;;340063;28;93244;-90
2021/04/21 00:08:38;;;;;;;2.33;1.38;;;14.30;66.60;14.50;99354.00;;;;338974;28;84802;-91
2021/04/21 00:08:50;;;;;;;2.80;1.50;;;14.30;66.60;14.40;99347.00;;;;339829;28;92056;-91
2021/04/21 00:09:10;;;;;;;2.75;1.40;;;14.30;66.70;14.40;99351.00;;;;341799;28;84923;-90
2021/04/21 00:09:22;;;;;;;2.10;1.13;;;14.20;66.60;14.20;99353.00;;;;339982;28;89508;-91
2021/04/21 00:09:33;;;;;;;1.52;1.13;;;14.30;66.70;14.20;99355.00;;;;341861;28;82413;-90
2021/04/21 00:09:49;;;;;;;1.27;1.05;;;14.20;66.60;14.20;99351.00;;;;341369;28;91094;-91
2021/04/21 00:10:10;;;;;;;1.30;1.10;;;14.30;66.60;14.00;99347.00;;;;340305;28;83523;-90
2021/04/21 00:10:22;;;;;;;1.38;1.10;;;14.20;66.80;14.00;99352.00;;;;339968;28;91865;-90
2021/04/21 00:10:34;;;;;;;1.90;1.10;;;14.10;66.70;14.10;99351.00;;;;340444;28;83863;-91
2021/04/21 00:10:45;;;;;;;2.15;1.05;;;14.10;66.50;14.00;99350.00;;;;338675;28;91128;-91
2021/04/21 00:10:58;;;;;;;2.28;1.10;;;14.10;66.90;13.90;99352.00;;;;340200;28;84565;-90
2021/04/21 00:11:10;;;;;;;2.97;1.25;;;14.10;67.00;13.90;99357.00;;;;340172;28;89251;-90
2021/04/21 00:11:21;;;;;;;2.83;1.20;;;14.10;67.10;13.90;99348.00;;;;340187;28;83416;-91
2021/04/21 00:11:33;;;;;;;2.88;1.42;;;14.10;67.10;13.90;99355.00;;;;338773;28;92238;-90
2021/04/21 00:11:44;;;;;;;1.70;1.20;;;14.00;67.20;14.00;99350.00;;;;341682;28;84121;-91
2021/04/21 00:11:56;;;;;;;1.88;1.13;;;14.00;67.10;13.90;99353.00;;;;342553;28;90012;-91
2021/04/21 00:12:08;;;;;;;2.20;1.20;;;14.00;67.30;14.00;99353.00;;;;341673;28;85111;-91
2021/04/21 00:12:20;;;;;;;2.00;1.10;;;14.00;67.10;14.10;99353.00;;;;342699;28;93306;-90
2021/04/21 00:12:31;;;;;;;1.25;0.90;;;14.00;67.20;14.10;99353.00;;;;341372;28;83849;-91
2021/04/21 00:12:43;;;;;;;1.30;1.00;;;14.00;67.10;14.20;99357.00;;;;342711;28;92121;-91
2021/04/21 00:12:54;;;;;;;1.48;1.15;;;14.00;67.10;14.10;99352.00;;;;343106;28;82570;-91
2021/04/21 00:13:09;;;;;;;1.92;1.35;;;14.00;67.10;14.10;99357.00;;;;345259;28;90515;-91
2021/04/21 00:13:21;;;;;;;1.88;1.23;;;14.00;67.40;14.20;99353.00;;;;342989;28;84639;-91
2021/04/21 00:13:33;;;;;;;1.95;1.10;;;14.00;67.30;14.20;99350.00;;;;341353;28;92381;-90
2021/04/21 00:13:45;;;;;;;1.90;1.15;;;14.00;67.30;14.10;99357.00;;;;342927;28;85340;-91
2021/04/21 00:13:56;;;;;;;1.95;1.30;;;14.00;67.50;14.00;99355.00;;;;339581;28;92205;-90
2021/04/21 00:14:09;;;;;;;2.17;1.30;;;14.00;67.50;14.00;99358.00;;;;341723;28;83539;-90
2021/04/21 00:14:22;;;;;;;2.53;1.20;;;14.00;68.00;14.10;99347.00;;;;339897;28;88912;-91
2021/04/21 00:14:34;;;;;;;2.40;1.02;;;14.00;67.50;14.10;99356.00;;;;341765;28;85126;-90
2021/04/21 00:14:46;;;;;;;1.80;1.05;;;14.00;67.50;14.10;99356.00;;;;342681;28;91401;-91
2021/04/21 00:14:57;;;;;;;1.70;0.95;;;14.00;67.30;14.20;99358.00;;;;341564;28;83970;-92
2021/04/21 00:15:12;;;;;;;2.20;1.33;;;14.00;67.30;14.20;99348.00;;;;339946;28;92358;-91
2021/04/21 00:15:24;;;;;;;2.53;1.60;;;14.00;67.60;14.30;99353.00;;;;342981;28;83707;-92
2021/04/21 00:15:36;;;;;;;2.85;1.45;;;14.00;67.50;14.40;99362.00;;;;340187;28;89687;-91
2021/04/21 00:15:48;;;;;;;2.53;1.30;;;14.10;67.40;14.30;99348.00;;;;340294;28;83326;-91
2021/04/21 00:15:59;;;;;;;2.10;1.17;;;14.10;67.40;14.20;99349.00;;;;342566;28;91178;-90
2021/04/21 00:16:13;;;;;;;1.58;1.13;;;14.10;67.50;14.40;99355.00;;;;340423;28;83747;-91
2021/04/21 00:16:24;;;;;;;1.98;1.33;;;14.10;67.30;14.40;99359.00;;;;340072;28;90006;-90
2021/04/21 00:16:36;;;;;;;1.77;1.20;;;14.20;67.50;14.20;99354.00;;;;340340;28;83729;-91
2021/04/21 00:16:53;;;;;;;1.40;0.88;;;14.10;67.30;14.00;99355.00;;;;340665;28;88245;-90
2021/04/21 00:17:05;;;;;;;2.38;1.10;;;14.10;67.60;14.00;99359.00;;;;341271;28;84251;-90
2021/04/21 00:17:19;;;;;;;2.58;1.30;;;14.10;67.60;14.00;99359.00;;;;342590;28;91728;-91
2021/04/21 00:17:30;;;;;;;2.42;1.17;;;14.10;67.80;14.20;99355.00;;;;340304;28;83996;-90
2021/04/21 00:17:45;;;;;;;3.00;1.15;;;14.10;67.50;14.10;99358.00;;;;341439;28;90735;-90
2021/04/21 00:18:02;;;;;;;2.80;1.20;;;14.10;67.70;14.30;99356.00;;;;341734;28;83650;-91
2021/04/21 00:18:14;;;;;;;1.85;1.08;;;14.10;67.60;14.10;99360.00;;;;341213;28;91313;-90
2021/04/21 00:18:25;;;;;;;2.33;1.20;;;14.10;67.80;14.00;99357.00;;;;342965;28;85109;-91
2021/04/21 00:18:37;;;;;;;2.70;1.40;;;14.10;67.80;13.90;99354.00;;;;341274;28;89845;-90
2021/04/21 00:18:48;;;;;;;2.20;1.70;;;14.00;67.80;13.90;99359.00;;;;341697;28;83723;-91
2021/04/21 00:19:00;;;;;;;2.10;1.48;;;14.00;67.80;13.90;99362.00;;;;341511;28;90885;-90
2021/04/21 00:19:12;;;;;;;1.85;1.40;;;14.00;67.70;13.90;99358.00;;;;341798;28;84675;-90
2021/04/21 00:19:24;;;;;;;1.70;1.30;;;14.00;68.50;14.00;99354.00;;;;340032;28;91724;-91
2021/04/21 00:19:37;;;;;;;1.85;1.42;;;14.00;67.80;14.00;99358.00;;;;344340;28;84942;-92
2021/04/21 00:19:51;;;;;;;1.90;1.20;;;14.00;67.80;14.00;99359.00;;;;339664;28;90678;-91
2021/04/21 00:20:04;;;;;;;1.88;1.30;;;14.00;67.80;14.10;99352.00;;;;343066;28;84024;-89
2021/04/21 00:20:17;;;;;;;1.88;1.50;;;14.00;67.60;14.10;99354.00;;;;340005;28;90093;-90
2021/04/21 00:20:29;;;;;;;1.63;1.30;;;14.00;67.70;14.20;99354.00;;;;341743;28;84911;-90
2021/04/21 00:20:40;;;;;;;1.63;1.20;;;14.00;67.70;14.20;99352.00;;;;339699;28;92963;-90
2021/04/21 00:20:58;;;;;;;1.90;1.20;;;14.10;67.80;14.40;99356.00;;;;343966;28;83607;-91
2021/04/21 00:21:10;;;;;;;2.15;1.35;;;14.00;67.80;14.40;99354.00;;;;344168;28;90444;-90
2021/04/21 00:21:23;;;;;;;1.98;1.30;;;14.10;67.80;14.50;99362.00;;;;340180;28;85126;-90
2021/04/21 00:21:34;;;;;;;1.90;1.30;;;14.10;67.80;14.40;99347.00;;;;340009;28;90849;-90
2021/04/21 00:21:46;;;;;;;1.70;1.45;;;14.10;67.80;14.20;99349.00;;;;343168;28;84943;-90
2021/04/21 00:21:58;;;;;;;1.75;1.55;;;14.10;67.80;14.20;99351.00;;;;340055;28;91091;-91
2021/04/21 00:22:10;;;;;;;3.42;1.67;;;14.10;67.90;14.30;99350.00;;;;343078;28;83408;-90
2021/04/21 00:22:23;;;;;;;3.33;1.50;;;14.10;67.70;14.40;99355.00;;;;340082;28;90707;-90
2021/04/21 00:22:34;;;;;;;1.95;0.98;;;14.10;67.60;14.40;99357.00;;;;343034;28;83971;-89
2021/04/21 00:22:55;;;;;;;2.13;0.98;;;14.20;67.70;14.30;99355.00;;;;342350;28;91363;-91
2021/04/21 00:23:09;;;;;;;1.77;1.30;;;14.20;67.70;14.20;99357.00;;;;342699;28;83773;-90
2021/04/21 00:23:20;;;;;;;1.80;1.42;;;14.20;67.90;14.30;99353.00;;;;341073;28;90927;-91
2021/04/21 00:23:33;;;;;;;2.05;1.30;;;14.20;67.90;14.30;99361.00;;;;341730;28;83398;-90
2021/04/21 00:23:45;;;;;;;2.10;1.17;;;14.20;68.00;14.20;99351.00;;;;342689;28;92497;-89
2021/04/21 00:23:56;;;;;;;2.17;1.08;;;14.20;68.20;14.20;99359.00;;;;341552;28;85120;-90
2021/04/21 00:24:08;;;;;;;2.22;1.23;;;14.20;67.90;14.20;99350.00;;;;339898;28;91750;-91
2021/04/21 00:24:19;;;;;;;2.45;1.30;;;14.20;67.90;14.20;99349.00;;;;340424;28;85235;-90
2021/04/21 00:24:31;;;;;;;2.28;1.50;;;14.20;68.40;14.30;99353.00;;;;342743;28;92248;-90
2021/04/21 00:24:44;;;;;;;2.10;1.50;;;14.20;67.90;14.30;99352.00;;;;340354;28;84897;-91
2021/04/21 00:24:55;;;;;;;1.92;1.58;;;14.20;67.70;14.30;99352.00;;;;339926;28;93567;-91
2021/04/21 00:25:07;;;;;;;1.70;1.30;;;14.20;67.70;14.30;99357.00;;;;341944;28;82360;-90
2021/04/21 00:25:19;;;;;;;1.70;1.20;;;14.20;67.60;14.40;99362.00;;;;345163;28;91295;-91
2021/04/21 00:25:32;;;;;;;1.85;1.35;;;14.20;67.60;14.30;99356.00;;;;343204;28;83388;-91
2021/04/21 00:25:43;;;;;;;3.08;1.40;;;14.30;67.70;14.30;99356.00;;;;343889;28;91989;-91
2021/04/21 00:25:56;;;;;;;3.05;1.42;;;14.20;67.80;14.30;99355.00;;;;342843;28;83750;-90
2021/04/21 00:26:11;;;;;;;2.30;1.30;;;14.20;67.70;14.40;99355.00;;;;342693;28;92295;-90
2021/04/21 00:26:23;;;;;;;2.58;1.27;;;14.20;67.60;14.40;99355.00;;;;344283;28;83950;-90
2021/04/21 00:26:34;;;;;;;2.33;1.23;;;14.30;67.70;14.30;99352.00;;;;342774;28;91634;-89
2021/04/21 00:26:47;;;;;;;1.77;1.17;;;14.30;67.90;14.50;99358.00;;;;340369;28;85174;-91
2021/04/21 00:26:58;;;;;;;1.80;1.20;;;14.30;67.90;14.50;99362.00;;;;342581;28;93112;-90
2021/04/21 00:27:10;;;;;;;1.80;1.30;;;14.30;68.10;14.60;99354.00;;;;341765;28;84758;-91
2021/04/21 00:27:25;;;;;;;2.20;1.45;;;14.30;68.00;14.30;99362.00;;;;342720;28;91983;-91
2021/04/21 00:27:37;;;;;;;2.72;1.70;;;14.30;68.10;14.30;99358.00;;;;340373;28;84588;-90
2021/04/21 00:27:53;;;;;;;2.92;1.83;;;14.30;68.70;14.40;99363.00;;;;339790;28;90824;-91
2021/04/21 00:28:05;;;;;;;2.22;1.40;;;14.30;68.10;14.50;99346.00;;;;338940;28;85094;-90
2021/04/21 00:28:17;;;;;;;2.92;1.33;;;14.30;68.00;14.40;99362.00;;;;342475;28;90610;-90
2021/04/21 00:28:32;;;;;;;2.58;1.17;;;14.30;67.90;14.50;99356.00;;;;339113;28;83397;-90
2021/04/21 00:28:43;;;;;;;2.10;1.40;;;14.30;67.80;14.40;99354.00;;;;341275;28;92315;-91
2021/04/21 00:28:55;;;;;;;3.47;1.90;;;14.30;67.70;14.30;99363.00;;;;339161;28;82536;-90
2021/04/21 00:29:07;;;;;;;3.40;1.70;;;14.30;67.70;14.30;99352.00;;;;339864;28;92801;-91
2021/04/21 00:29:18;;;;;;;2.83;1.58;;;14.30;67.80;14.30;99353.00;;;;340436;28;83802;-90
2021/04/21 00:29:29;;;;;;;1.83;1.15;;;14.30;67.80;14.20;99361.00;;;;342806;28;92398;-90
2021/04/21 00:29:44;;;;;;;2.00;1.15;;;14.30;67.90;14.20;99357.00;;;;340403;28;84954;-90
2021/04/21 00:30:06;;;;;;;3.05;1.40;;;14.30;67.90;14.30;99358.00;;;;338757;28;92610;-90
2021/04/21 00:30:20;;;;;;;3.22;1.90;;;14.30;68.50;14.20;99361.00;;;;342870;28;83967;-90
2021/04/21 00:30:32;;;;;;;5.10;1.83;;;14.30;67.80;14.20;99355.00;;;;344108;28;92404;-90
2021/04/21 00:30:44;;;;;;;7.80;2.25;;;14.30;67.90;14.10;99352.00;;;;340267;28;84979;-90
2021/04/21 00:30:55;;;;;;;7.70;2.35;;;14.30;67.90;14.20;99355.00;;;;341426;28;92168;-90
2021/04/21 00:31:08;;;;;;;2.63;1.63;;;14.30;67.80;14.20;99350.00;;;;343154;28;82446;-90
2021/04/21 00:31:19;;;;;;;3.35;1.80;;;14.30;67.90;14.30;99351.00;;;;341458;28;88964;-91
2021/04/21 00:31:31;;;;;;;3.40;1.50;;;14.30;67.90;14.20;99342.00;;;;343326;28;82334;-90
2021/04/21 00:31:47;;;;;;;2.22;1.20;;;14.30;68.80;14.30;99365.00;;;;339852;28;90830;-91
2021/04/21 00:31:59;;;;;;;2.20;1.38;;;14.30;68.10;14.50;99357.00;;;;341744;28;84724;-90
2021/04/21 00:32:11;;;;;;;2.20;1.40;;;14.30;68.60;14.50;99352.00;;;;340108;28;90631;-90
2021/04/21 00:32:25;;;;;;;2.17;1.48;;;14.30;67.90;14.50;99350.00;;;;341627;28;83703;-90
2021/04/21 00:32:45;;;;;;;3.40;1.33;;;14.30;68.10;14.30;99365.00;;;;342717;28;92756;-90
2021/04/21 00:32:57;;;;;;;4.97;1.60;;;14.30;67.90;14.20;99346.00;;;;341800;28;83538;-89
2021/04/21 00:33:09;;;;;;;3.47;1.60;;;14.30;68.00;14.10;99358.00;;;;342587;28;90039;-90
2021/04/21 00:33:20;;;;;;;2.38;1.52;;;14.30;67.90;14.00;99356.00;;;;343131;28;83211;-90
2021/04/21 00:33:33;;;;;;;1.83;1.58;;;14.20;67.90;14.00;99353.00;;;;342694;28;90039;-90
2021/04/21 00:33:44;;;;;;;2.03;1.48;;;14.30;67.90;14.10;99355.00;;;;340313;28;83892;-90
2021/04/21 00:33:58;;;;;;;2.13;1.60;;;14.30;68.10;14.10;99352.00;;;;341375;28;91190;-90
2021/04/21 00:34:11;;;;;;;2.45;1.50;;;14.20;67.90;14.20;99354.00;;;;339047;28;84109;-91
2021/04/21 00:34:22;;;;;;;2.38;1.40;;;14.20;67.90;14.20;99353.00;;;;341448;28;92116;-90
2021/04/21 00:34:34;;;;;;;2.08;1.50;;;14.20;67.90;14.20;99359.00;;;;341833;28;84348;-90
2021/04/21 00:34:45;;;;;;;2.35;1.65;;;14.20;67.80;14.30;99348.00;;;;342567;28;91791;-91
2021/04/21 00:34:57;;;;;;;2.60;1.67;;;14.20;67.60;14.30;99355.00;;;;343110;28;84190;-90
2021/04/21 00:35:11;;;;;;;3.10;1.70;;;14.20;67.60;14.40;99362.00;;;;342773;28;91694;-90
2021/04/21 00:35:45;;;;;;;2.70;1.50;;;14.20;67.70;14.20;99368.00;;;;343162;28;82485;-90
2021/04/21 00:35:56;;;;;;;3.63;1.70;;;14.30;67.80;14.20;99362.00;;;;342557;28;93177;-90
2021/04/21 00:36:12;;;;;;;3.78;1.92;;;14.20;68.10;14.20;99361.00;;;;341512;28;84017;-90
2021/04/21 00:36:24;;;;;;;3.22;1.58;;;14.20;68.00;14.20;99365.00;;;;341515;28;89728;-91
2021/04/21 00:36:35;;;;;;;2.50;1.70;;;14.20;68.10;14.10;99363.00;;;;343297;28;83337;-90
2021/04/21 00:36:51;;;;;;;4.00;2.08;;;14.20;68.30;14.20;99370.00;;;;342845;28;90789;-91
2021/04/21 00:37:02;;;;;;;3.42;1.85;;;14.20;68.10;14.10;99365.00;;;;341918;28;83412;-91
2021/04/21 00:37:13;;;;;;;2.58;1.60;;;14.20;68.10;14.20;99356.00;;;;342935;28;90490;-89
2021/04/21 00:37:27;;;;;;;2.35;1.60;;;14.20;68.10;14.20;99353.00;;;;340503;28;83963;-90
2021/04/21 00:37:39;;;;;;;2.60;1.58;;;14.20;68.20;14.10;99352.00;;;;341813;28;91914;-89
2021/04/21 00:37:56;;;;;;;2.28;1.50;;;14.20;68.20;14.40;99354.00;;;;342928;28;83313;-91
2021/04/21 00:38:18;;;;;;;2.45;1.65;;;14.20;68.10;14.10;99361.00;;;;341688;28;93006;-91
2021/04/21 00:38:29;;;;;;;4.38;1.85;;;14.20;68.30;14.20;99358.00;;;;343497;28;84382;-90
2021/04/21 00:38:41;;;;;;;4.30;1.83;;;14.20;68.20;14.30;99356.00;;;;340540;28;92010;-90
2021/04/21 00:38:53;;;;;;;3.17;1.65;;;14.20;68.20;14.30;99356.00;;;;340617;28;84728;-90
2021/04/21 00:39:04;;;;;;;3.03;1.60;;;14.20;68.20;14.30;99357.00;;;;341675;28;90147;-90
2021/04/21 00:39:17;;;;;;;3.38;1.42;;;14.20;68.10;14.40;99361.00;;;;342312;28;83404;-90
2021/04/21 00:39:28;;;;;;;3.15;1.50;;;14.20;68.20;14.30;99353.00;;;;342834;28;91316;-89
2021/04/21 00:39:41;;;;;;;2.88;1.55;;;14.30;68.30;14.10;99357.00;;;;342190;28;84163;-89
2021/04/21 00:39:52;;;;;;;2.13;1.80;;;14.20;68.50;14.00;99358.00;;;;340470;28;89500;-90
2021/04/21 00:40:06;;;;;;;2.67;2.00;;;14.20;68.40;13.90;99358.00;;;;340835;28;84985;-90
2021/04/21 00:40:24;;;;;;;2.97;1.95;;;14.10;68.20;13.90;99349.00;;;;341556;28;93525;-90
2021/04/21 00:41:02;;;;;;;2.38;1.52;;;14.10;68.40;14.10;99355.00;;;;342082;28;84565;-90
2021/04/21 00:41:53;;;;;;;2.28;1.35;;;14.10;68.10;14.00;99357.00;;;;343012;28;89333;-90
2021/04/21 00:42:10;;;;;;;2.97;1.60;;;14.10;68.30;14.00;99356.00;;;;340442;28;84810;-90
2021/04/21 00:42:57;;;;;;;2.97;1.45;;;14.10;68.60;13.90;99360.00;;;;341210;28;91101;-91
2021/04/21 00:43:25;;;;;;;3.00;1.63;;;14.00;68.80;14.00;99360.00;;;;341695;28;84726;-90
2021/04/21 00:44:01;;;;;;;3.55;1.40;;;14.00;68.90;14.10;99354.00;;;;340042;28;91562;-90
2021/04/21 00:44:41;;;;;;;4.15;1.63;;;14.00;68.90;14.40;99355.00;;;;340463;28;83382;-90
2021/04/21 00:45:06;;;;;;;4.03;1.83;;;14.00;68.90;14.20;99359.00;;;;339459;28;91692;-90
2021/04/21 00:45:18;;;;;;;2.55;1.52;;;14.10;68.90;14.30;99350.00;;;;340331;28;83642;-90
2021/04/21 00:45:39;;;;;;;2.47;1.52;;;14.10;68.80;14.10;99349.00;;;;341244;28;93646;-90
2021/04/21 00:46:01;;;;;;;5.20;1.60;;;14.10;69.10;14.20;99351.00;;;;340291;28;83911;-90
2021/04/21 00:46:39;;;;;;;5.30;1.60;;;14.10;69.10;14.40;99355.00;;;;338662;28;92334;-90
2021/04/21 00:47:06;;;;;;;3.80;1.63;;;14.10;68.80;14.20;99354.00;;;;341438;28;83833;-90
2021/04/21 00:47:49;;;;;;;2.20;1.45;;;14.10;68.90;14.00;99357.00;;;;342355;28;91953;-90
2021/04/21 00:48:29;;;;;;;2.22;1.63;;;14.10;69.00;13.90;99349.00;;;;340728;28;83666;-90
2021/04/21 00:49:01;;;;;;;2.15;1.60;;;14.00;69.00;14.10;99353.00;;;;339974;28;90002;-90
2021/04/21 00:49:15;;;;;;;3.08;1.75;;;14.00;69.00;14.00;99349.00;;;;340957;28;83351;-90
2021/04/21 00:49:47;;;;;;;2.88;1.50;;;14.00;69.00;14.00;99349.00;;;;340528;28;91478;-90
2021/04/21 00:50:29;;;;;;;2.78;1.50;;;14.00;68.90;14.00;99352.00;;;;340648;28;84060;-90
2021/04/21 00:50:56;;;;;;;3.03;1.30;;;14.10;68.90;14.00;99351.00;;;;337757;28;89357;-92
2021/04/21 00:51:13;;;;;;;2.10;1.30;;;14.00;69.10;13.90;99347.00;;;;342061;28;84195;-90
2021/04/21 00:51:36;;;;;;;2.40;1.40;;;14.00;69.50;14.10;99356.00;;;;341742;28;90751;-90
2021/04/21 00:52:07;;;;;;;2.97;1.80;;;14.00;69.30;14.20;99351.00;;;;342048;28;85166;-90
2021/04/21 00:52:27;;;;;;;2.05;1.50;;;14.00;69.20;14.20;99346.00;;;;341789;28;90753;-90
2021/04/21 00:53:01;;;;;;;2.13;1.30;;;14.00;69.00;14.10;99358.00;;;;340936;28;84420;-91
2021/04/21 00:53:42;;;;;;;2.70;1.70;;;14.00;69.30;13.90;99353.00;;;;340321;28;90874;-90
2021/04/21 00:54:52;;;;;;;2.85;1.48;;;14.00;69.30;13.80;99363.00;;;;344332;28;84094;-90
2021/04/21 00:55:15;;;;;;;3.50;1.63;;;14.00;69.70;13.70;99360.00;;;;342598;28;89643;-90
2021/04/21 00:56:01;;;;;;;2.90;1.67;;;13.80;69.80;13.50;99357.00;;;;342815;28;83429;-90
2021/04/21 00:56:21;;;;;;;2.55;2.08;;;13.80;70.10;13.40;99359.00;;;;338575;28;90225;-90
2021/04/21 00:57:02;;;;;;;3.53;2.00;;;13.70;70.60;13.50;99352.00;;;;338792;28;82806;-89
2021/04/21 00:57:28;;;;;;;3.45;1.80;;;13.60;70.80;13.50;99354.00;;;;338266;28;90996;-89
2021/04/21 00:58:03;;;;;;;2.15;1.52;;;13.60;70.90;13.70;99352.00;;;;339061;28;83450;-90
2021/04/21 00:58:47;;;;;;;2.80;1.60;;;13.60;70.40;13.80;99351.00;;;;338549;28;92126;-90
2021/04/21 00:59:22;;;;;;;2.13;1.63;;;13.60;71.60;13.60;99354.00;;;;338577;28;83659;-90
2021/04/21 00:59:43;;;;;;;2.90;1.60;;;13.60;71.30;13.50;99353.00;;;;341081;28;91159;-90
2021/04/21 01:00:11;;;;;;;2.95;1.83;;;13.60;71.40;13.50;99360.00;;;;341596;28;84035;-90
2021/04/21 01:00:43;;;;;;;2.35;1.80;;;13.60;71.60;13.60;99353.00;;;;339550;28;91301;-91
2021/04/21 01:00:55;;;;;;;3.08;1.60;;;13.50;71.50;13.50;99344.00;;;;338693;28;83919;-89
2021/04/21 01:01:08;;;;;;;3.58;1.75;;;13.50;71.70;13.50;99336.00;;;;338607;28;91578;-90
2021/04/21 01:01:20;;;;;;;3.08;1.65;;;13.50;71.80;13.40;99350.00;;;;341392;28;83948;-90
2021/04/21 01:01:32;;;;;;;2.33;1.73;;;13.50;71.90;13.40;99349.00;;;;339852;28;91509;-90
2021/04/21 01:01:43;;;;;;;2.15;1.90;;;13.50;72.00;13.40;99351.00;;;;340005;28;84547;-90
2021/04/21 01:01:56;;;;;;;2.85;2.00;;;13.50;72.10;13.40;99349.00;;;;339767;28;90920;-90
2021/04/21 01:02:07;;;;;;;2.60;1.60;;;13.50;72.20;13.40;99351.00;;;;338562;28;83953;-90
2021/04/21 01:02:23;;;;;;;2.25;1.50;;;13.40;72.20;13.30;99349.00;;;;340496;28;92300;-90
2021/04/21 01:02:45;;;;;;;2.13;1.70;;;13.40;72.20;13.30;99345.00;;;;340252;28;83911;-90
2021/04/21 01:03:12;;;;;;;2.30;1.67;;;13.40;72.70;13.30;99347.00;;;;337257;28;91444;-89
2021/04/21 01:03:25;;;;;;;2.67;1.58;;;13.40;72.70;13.30;99349.00;;;;338845;28;83933;-90
2021/04/21 01:03:36;;;;;;;2.30;1.55;;;13.40;72.90;13.30;99337.00;;;;338571;28;89288;-90
2021/04/21 01:03:51;;;;;;;1.85;1.50;;;13.30;72.90;13.30;99346.00;;;;338981;28;84883;-89
2021/04/21 01:04:03;;;;;;;2.60;1.65;;;13.30;73.10;13.30;99354.00;;;;339897;28;91336;-89
2021/04/21 01:04:14;;;;;;;3.00;1.98;;;13.30;73.20;13.30;99346.00;;;;339032;28;84471;-90
2021/04/21 01:04:26;;;;;;;2.70;1.98;;;13.30;73.20;13.30;99348.00;;;;340077;28;90817;-90
2021/04/21 01:04:41;;;;;;;2.60;2.35;;;13.30;73.20;13.40;99345.00;;;;340320;28;83445;-90
2021/04/21 01:04:52;;;;;;;2.38;2.10;;;13.30;73.10;13.30;99343.00;;;;338735;28;92667;-90
2021/04/21 01:05:16;;;;;;;2.80;1.70;;;13.30;72.90;13.40;99342.00;;;;341612;28;83436;-90
2021/04/21 01:05:31;;;;;;;2.55;1.58;;;13.30;72.80;13.30;99348.00;;;;341212;28;91539;-90
2021/04/21 01:05:58;;;;;;;1.95;1.40;;;13.30;72.90;13.30;99353.00;;;;339000;28;83308;-91
2021/04/21 01:06:15;;;;;;;2.33;1.75;;;13.30;73.70;13.20;99347.00;;;;340856;28;92088;-90
2021/04/21 01:06:33;;;;;;;3.33;1.63;;;13.30;74.10;13.20;99341.00;;;;339045;28;84640;-89
2021/04/21 01:06:46;;;;;;;4.38;1.95;;;13.30;74.10;13.20;99347.00;;;;341122;28;92222;-90
2021/04/21 01:06:57;;;;;;;3.88;2.22;;;13.20;74.10;13.20;99355.00;;;;340120;28;85028;-91
2021/04/21 01:07:10;;;;;;;2.88;2.08;;;13.20;74.20;13.30;99343.00;;;;341248;28;91983;-90
2021/04/21 01:07:21;;;;;;;3.08;1.80;;;13.30;74.60;13.30;99348.00;;;;342978;28;83786;-89
2021/04/21 01:07:33;;;;;;;2.78;1.70;;;13.20;74.50;13.30;99349.00;;;;341297;28;92235;-90
2021/04/21 01:07:46;;;;;;;2.00;1.75;;;13.30;74.50;13.30;99347.00;;;;342662;28;83488;-90
2021/04/21 01:08:00;;;;;;;2.22;1.83;;;13.30;74.80;13.20;99342.00;;;;341096;28;92265;-91
2021/04/21 01:08:14;;;;;;;2.83;1.90;;;13.20;74.70;13.20;99353.00;;;;341564;28;83210;-89
2021/04/21 01:08:32;;;;;;;2.90;1.90;;;13.30;75.80;13.10;99353.00;;;;339899;28;91652;-90
2021/04/21 01:08:57;;;;;;;2.40;1.85;;;13.20;75.90;13.30;99346.00;;;;341465;28;83442;-90
2021/04/21 01:09:08;;;;;;;2.65;1.63;;;13.20;75.50;13.40;99349.00;;;;338458;28;91985;-90
2021/04/21 01:09:21;;;;;;;2.42;1.67;;;13.20;74.80;13.50;99344.00;;;;338882;28;83509;-90
2021/04/21 01:09:32;;;;;;;2.45;1.70;;;13.20;74.70;13.40;99340.00;;;;338601;28;88600;-90
2021/04/21 01:09:45;;;;;;;3.00;1.75;;;13.20;75.10;13.30;99339.00;;;;340334;28;83945;-90
2021/04/21 01:09:56;;;;;;;3.13;1.60;;;13.30;75.10;13.30;99348.00;;;;338638;28;92314;-90
2021/04/21 01:10:09;;;;;;;2.63;1.52;;;13.30;75.20;13.20;99348.00;;;;338885;28;84901;-91
2021/04/21 01:10:21;;;;;;;2.40;1.67;;;13.30;75.70;13.30;99347.00;;;;341114;28;90920;-91
2021/04/21 01:11:04;;;;;;;2.03;1.60;;;13.30;75.80;13.10;99353.00;;;;341730;28;84368;-89
2021/04/21 01:11:53;;;;;;;4.50;2.03;;;13.20;76.10;13.20;99343.00;;;;340018;28;92357;-90
2021/04/21 01:12:06;;;;;;;3.47;2.40;;;13.10;75.90;13.00;99343.00;;;;337396;28;84074;-89